aviador You're here:

KCLI Decoded Metar

CLINTONVILLE in WI, USA
Report Time2017-11-18 10:01:00
UTC Time2017-11-18 10:10:40
Flight Rules vfr VFR
Wind020° at 03 kt
W.Decomp.*RWY 04: 2.9 kt HW 0.9 kt LCW
RWY 32: 1.4 kt HW 2.6 kt RCW
RWY 09: 1.1 kt HW 2.8 kt LCW
W.Rank020° ranks 25
Current wind is below 020° avg. (6.1)
Visibility9999 m
Phenomena:N/A
Clouds:Scattered 085 Hf
Broken 120 Hf
Expected CloudBase > 400 ft AGL from Temp-Dew spread
Ceiling12,000 ft
Temp02°C (ISA -11)
Dew Point01°C (93% RH)
AAT-0.9°C
QNH1002 hPa
Density Alt-92 ft
Elevation820 ft
Report Wrong Elevation
Raw Report
KCLI 181001Z AUTO 02003KT 7SM SCT085 BKN120 02/01 A2960 RMK
AO2=

Extra information for KCLI:More info

Metar Taf Metar & Taf Last 4 Metars F.Rules Stats Wind Profile Meteogram Temp Stats Airport Information Weather charts Add Link Nearby VenuesMetar ALERT Operation Metar Decoded Social comments

AIRNAV info for KCLI